ADDS METAR Data INFO
IDs: Format: Raw Decoded Include TAF

Data at: 0857 UTC 19 Jun 2018

K1K1 190835Z AUTO 19010KT 10SM CLR 24/21 A2995 RMK AO2 T02350205
K1K1 190815Z AUTO 19010KT 10SM CLR 23/21 A2995 RMK AO2 T02320205
K1K1 190755Z AUTO 18010G15KT 10SM CLR 23/21 A2995 RMK AO2 T02340206
K1K1 190735Z AUTO 18009KT 10SM CLR 24/21 A2995 RMK AO2 T02350206
K1K1 190715Z AUTO 17006KT 10SM CLR 24/21 A2996 RMK AO2 T02370207
K1K1 190655Z AUTO 17005KT 10SM CLR 24/21 A2997 RMK AO2 T02400207
K1K1 190635Z AUTO 17006KT 10SM CLR 24/21 A2997 RMK AO2 T02430208
K1K1 190615Z AUTO 18007KT 10SM CLR 24/21 A2997 RMK AO2 T02430207
K1K1 190555Z AUTO 17006KT 10SM CLR 25/21 A2997 RMK AO2 T02460208 10308 20246 403310220
K1K1 190535Z AUTO 18008KT 10SM CLR 25/21 A2997 RMK AO2 T02480208
K1K1 190515Z AUTO 18008KT 10SM CLR 25/21 A2997 RMK AO2 T02500209
K1K1 190455Z AUTO 17005KT 10SM CLR 26/21 A2997 RMK AO2 T02550210
K1K1 190435Z AUTO 18007KT 10SM CLR 26/21 A2997 RMK AO2 T02570210
K1K1 190415Z AUTO 17008G16KT 10SM CLR 26/21 A2996 RMK AO2 T02590210
K1K1 190355Z AUTO 17009G19KT 10SM CLR 26/21 A2995 RMK AO2 T02620208
K1K1 190335Z AUTO 17012G17KT 10SM CLR 27/21 A2995 RMK AO2 T02650210
K1K1 190315Z AUTO 17009G18KT 10SM CLR 27/21 A2996 RMK AO2 T02670209
K1K1 190255Z AUTO 17008G17KT 10SM CLR 27/21 A2996 RMK AO2 T02700207
K1K1 190235Z AUTO 17006KT 10SM CLR 27/21 A2997 RMK AO2 T02740207
K1K1 190215Z AUTO 18007G17KT 10SM CLR 28/21 A2997 RMK AO2 T02770208
K1K1 190155Z AUTO 18011G18KT 10SM CLR 28/21 A2997 RMK AO2 T02790210
K1K1 190135Z AUTO 17008KT 10SM CLR 28/21 A2997 RMK AO2 T02800209
K1K1 190115Z AUTO 17010G22KT 10SM CLR 29/21 A2995 RMK AO2 T02850210
K1K1 190055Z AUTO 16010G18KT 10SM CLR 29/21 A2995 RMK AO2 T02890210
K1K1 190035Z AUTO 17010G21KT 10SM CLR 29/21 A2993 RMK AO2 T02930206
K1K1 190015Z AUTO 17011G18KT 10SM CLR 30/21 A2992 RMK AO2 T03010205
K1K1 182355Z AUTO 18011G18KT 10SM CLR 31/20 A2992 RMK AO2 T03070203 10331 20306
K1K1 182335Z AUTO 16008G19KT 10SM SCT048 SCT055 31/20 A2992 RMK AO2 T03070204
K1K1 182315Z AUTO 17013G20KT 10SM SCT048 SCT055 31/21 A2992 RMK AO2 T03110205
K1K1 182255Z AUTO 17012G21KT 10SM SCT048 31/21 A2992 RMK AO2 T03110206
K1K1 182235Z AUTO 17012G20KT 10SM SCT046 31/20 A2991 RMK AO2 T03120203
K1K1 182215Z AUTO 17013G21KT 10SM SCT048 32/21 A2992 RMK AO2 T03210210
K1K1 182155Z AUTO 16011G25KT 10SM SCT048 31/21 A2992 RMK AO2 T03140206
K1K1 182135Z AUTO 16011G19KT 130V190 10SM BKN046 BKN055 32/21 A2992 RMK AO2 T03240210
K1K1 182115Z AUTO 15014G20KT 10SM SCT046 32/21 A2994 RMK AO2 T03200210
K1K1 182055Z AUTO 19016G20KT 10SM SCT044 32/21 A2994 RMK AO2 T03210211
K1K1 182035Z AUTO 17013G18KT 10SM SCT044 SCT050 32/21 A2995 RMK AO2 T03220211
K1K1 182015Z AUTO 18011G19KT 10SM SCT044 32/21 A2996 RMK AO2 T03230213
K1K1 181955Z AUTO 18013G20KT 10SM SCT042 32/21 A2996 RMK AO2 T03170209
K1K1 181935Z AUTO 17012G18KT 10SM BKN040 BKN050 32/22 A2998 RMK AO2 T03190216
K1K1 181915Z AUTO 16013G19KT 10SM SCT038 BKN048 31/22 A2998 RMK AO2 T03100216
K1K1 181855Z AUTO 18011G20KT 10SM SCT038 SCT043 SCT050 32/22 A2998 RMK AO2 T03150216
K1K1 181835Z AUTO 18011G21KT 10SM SCT036 32/22 A2999 RMK AO2 T03150218
K1K1 181815Z AUTO 16012G19KT 140V200 10SM SCT036 32/22 A3000 RMK AO2 T03150219
K1K1 181755Z AUTO 17012G20KT 10SM SCT036 31/22 A3000 RMK AO2 T03100217 10314 20226
K1K1 181735Z AUTO 18012G20KT 10SM CLR 31/22 A3000 RMK AO2 T03090218
K1K1 181715Z AUTO 18012G19KT 10SM CLR 31/22 A3000 RMK AO2 T03090215
K1K1 181655Z AUTO 17008G20KT 10SM CLR 30/22 A3001 RMK AO2 T03000215
K1K1 181635Z AUTO 17008G19KT 10SM CLR 30/22 A3001 RMK AO2 T03010216
K1K1 181615Z AUTO 20013G19KT 10SM CLR 30/21 A3001 RMK AO2 T02980214
K1K1 181555Z AUTO 19014G19KT 10SM CLR 29/21 A3001 RMK AO2 T02940212
K1K1 181535Z AUTO 19014G17KT 10SM CLR 29/21 A3001 RMK AO2 T02910213
K1K1 181515Z AUTO 19012G15KT 10SM CLR 29/22 A3001 RMK AO2 T02870215
K1K1 181455Z AUTO 19014KT 10SM CLR 28/21 A3002 RMK AO2 T02820214
K1K1 181435Z AUTO 19012KT 10SM CLR 27/21 A3002 RMK AO2 T02740211
K1K1 181415Z AUTO 19014G18KT 10SM CLR 27/21 A3002 RMK AO2 T02700211
K1K1 181355Z AUTO 20014G21KT 10SM CLR 26/21 A3002 RMK AO2 T02620210
K1K1 181335Z AUTO 19011G17KT 10SM CLR 26/21 A3002 RMK AO2 T02550208
K1K1 181315Z AUTO 19011G18KT 10SM CLR 25/21 A3001 RMK AO2 T02500207
K1K1 181255Z AUTO 18009KT 10SM CLR 24/21 A3001 RMK AO2 T02430207
K1K1 181235Z AUTO 18009G15KT 10SM CLR 24/21 A3000 RMK AO2 T02350205
K1K1 181215Z AUTO 18010KT 10SM CLR 23/20 A2999 RMK AO2 T02290202
K1K1 181155Z AUTO 18009KT 10SM CLR 23/20 A2999 RMK AO2 T02250201 10251 20220
K1K1 181135Z AUTO 18009KT 10SM CLR 22/20 A2999 RMK AO2 T02230201
K1K1 181115Z AUTO 18011G14KT 10SM CLR 22/20 A2998 RMK AO2 T02210200
K1K1 181055Z AUTO 18010KT 10SM CLR 22/20 A2998 RMK AO2 T02210200
K1K1 181035Z AUTO 18010G16KT 10SM CLR 22/20 A2998 RMK AO2 T02200200
K1K1 181015Z AUTO 18011KT 10SM CLR 22/20 A2998 RMK AO2 T02200200
K1K1 180955Z AUTO 17009KT 10SM CLR 22/20 A2998 RMK AO2 T02200200
K1K1 180935Z AUTO 17008KT 130V190 10SM CLR 22/20 A2998 RMK AO2 T02200198
K1K1 180915Z AUTO 17007KT 10SM CLR 22/20 A2998 RMK AO2 T02230199
K1K1 180855Z AUTO 19009KT 10SM CLR 23/20 A2997 RMK AO2 T02310200
K1K1 180835Z AUTO 19009KT 10SM CLR 24/20 A2997 RMK AO2 T02350200
K1K1 180815Z AUTO 19010KT 10SM CLR 24/20 A2997 RMK AO2 T02360200
K1K1 180755Z AUTO 19010KT 10SM CLR 24/20 A2996 RMK AO2 T02360200
K1K1 180735Z AUTO 18007KT 10SM CLR 24/20 A2996 RMK AO2 T02350200
K1K1 180715Z AUTO 18007KT 10SM CLR 24/20 A2996 RMK AO2 T02410200
K1K1 180655Z AUTO 18009G14KT 10SM CLR 25/20 A2996 RMK AO2 T02450200
K1K1 180635Z AUTO 17006KT 10SM CLR 25/20 A2996 RMK AO2 T02480200
K1K1 180615Z AUTO 17007G17KT 10SM CLR 25/20 A2996 RMK AO2 T02500200
K1K1 180555Z AUTO 17007G16KT 10SM CLR 25/20 A2996 RMK AO2 T02500199 10312 20250 403400241
K1K1 180535Z AUTO 17008G16KT 10SM CLR 25/20 A2996 RMK AO2 T02510199
K1K1 180515Z AUTO 17006KT 10SM CLR 25/20 A2996 RMK AO2 T02500198
K1K1 180455Z AUTO 16006KT 10SM CLR 25/20 A2996 RMK AO2 T02530197
K1K1 180435Z AUTO 16006KT 10SM CLR 26/20 A2996 RMK AO2 T02550196
K1K1 180415Z AUTO 16007KT 10SM CLR 26/20 A2996 RMK AO2 T02580196
K1K1 180355Z AUTO 16008KT 10SM CLR 26/20 A2996 RMK AO2 T02600195
K1K1 180335Z AUTO 17006KT 10SM CLR 27/20 A2997 RMK AO2 T02660195
K1K1 180315Z AUTO 17011G16KT 10SM CLR 27/19 A2996 RMK AO2 T02700193
K1K1 180255Z AUTO 17008G15KT 10SM CLR 27/19 A2995 RMK AO2 T02720193
K1K1 180235Z AUTO 17009G15KT 10SM CLR 28/20 A2995 RMK AO2 T02750195
K1K1 180215Z AUTO 17010G18KT 10SM CLR 28/20 A2995 RMK AO2 T02800195
K1K1 180155Z AUTO 16007G16KT 10SM CLR 28/20 A2994 RMK AO2 T02820198
K1K1 180135Z AUTO 17009G16KT 10SM CLR 29/20 A2994 RMK AO2 T02880196
K1K1 180115Z AUTO 17013G20KT 10SM CLR 30/19 A2993 RMK AO2 T02950193
K1K1 180055Z AUTO 17012G21KT 10SM CLR 30/19 A2993 RMK AO2 T02980192
K1K1 180035Z AUTO 17011G18KT 10SM CLR 30/20 A2993 RMK AO2 T03040195
K1K1 180015Z AUTO 18014G21KT 10SM CLR 31/19 A2993 RMK AO2 T03100194
K1K1 172355Z AUTO 17011G22KT 10SM CLR 31/19 A2992 RMK AO2 T03110193 10340 20311
K1K1 172335Z AUTO 17015G22KT 10SM CLR 32/19 A2992 RMK AO2 T03150193
K1K1 172315Z AUTO 17011G25KT 10SM CLR 32/19 A2991 RMK AO2 T03200194
K1K1 172255Z AUTO 17016G22KT 10SM CLR 32/19 A2991 RMK AO2 T03230191
K1K1 172235Z AUTO 16011G22KT 130V190 10SM CLR 32/19 A2991 RMK AO2 T03230188
K1K1 172215Z AUTO 17013G24KT 10SM CLR 33/19 A2991 RMK AO2 T03270189
K1K1 172200Z AUTO 17016G24KT 10SM CLR 33/19 A2991 RMK AO2 T03310185
K1K1 172135Z AUTO 18016G22KT 10SM CLR 33/18 A2992 RMK AO2 T03330180
K1K1 172115Z AUTO 16015G20KT 10SM CLR 33/18 A2992 RMK AO2 T03330182